Time;durP1;ratioP1;P1;durP2;ratioP2;P2;SDS_P1;SDS_P2;PMS_P1;PMS_P2;Temp;Humidity;BMP_temperature;BMP_pressure;BME280_temperature;BME280_humidity;BME280_pressure;Samples;Min_cycle;Max_cycle;Signal;HPM_P1;HPM_P2
2023/03/10 00:02:19;;;;;;;8.38;3.05;;;10.30;99.90;;;;;;5053566;28;20171;-51
2023/03/10 00:04:49;;;;;;;5.45;2.55;;;10.50;99.90;;;;;;5053890;28;20175;-50
2023/03/10 00:07:15;;;;;;;7.10;4.15;;;10.70;99.90;;;;;;5053479;28;20567;-50
2023/03/10 00:09:40;;;;;;;10.40;4.72;;;10.70;99.90;;;;;;5054002;28;20177;-46
2023/03/10 00:12:06;;;;;;;9.73;4.38;;;10.70;99.90;;;;;;5053560;28;20173;-49
2023/03/10 00:14:32;;;;;;;10.50;4.97;;;10.70;99.90;;;;;;5053467;28;20237;-46
2023/03/10 00:16:57;;;;;;;7.35;4.38;;;10.70;99.90;;;;;;5053819;28;20178;-44
2023/03/10 00:19:23;;;;;;;4.45;3.20;;;10.60;99.90;;;;;;5053782;28;20513;-49
2023/03/10 00:21:48;;;;;;;9.48;4.47;;;10.60;99.90;;;;;;5051659;28;20630;-43
2023/03/10 00:24:14;;;;;;;5.05;3.50;;;10.70;99.90;;;;;;5053321;28;20159;-45
2023/03/10 00:26:40;;;;;;;5.70;2.65;;;10.60;99.90;;;;;;5053320;28;20170;-44
2023/03/10 00:29:05;;;;;;;3.13;1.25;;;10.60;99.90;;;;;;5052874;28;20270;-48
2023/03/10 00:31:31;;;;;;;5.28;1.13;;;10.50;99.90;;;;;;5053315;28;20262;-51
2023/03/10 00:33:57;;;;;;;0.52;0.52;;;10.50;99.90;;;;;;5053578;28;20203;-46
2023/03/10 00:36:26;;;;;;;2.28;0.63;;;10.50;99.90;;;;;;5053337;28;20159;-51
2023/03/10 00:38:53;;;;;;;2.20;1.05;;;10.50;99.90;;;;;;5053262;28;20179;-51
2023/03/10 00:41:21;;;;;;;1.17;0.75;;;10.60;99.90;;;;;;5052007;28;20559;-43
2023/03/10 00:43:48;;;;;;;0.88;0.70;;;10.60;99.90;;;;;;5051833;28;20198;-44
2023/03/10 00:46:14;;;;;;;0.77;0.77;;;10.60;99.90;;;;;;5052976;28;20242;-43
2023/03/10 00:48:40;;;;;;;2.33;0.80;;;10.50;99.90;;;;;;5052809;28;20246;-43
2023/03/10 00:51:06;;;;;;;3.15;0.95;;;10.60;99.90;;;;;;5052859;28;20721;-43
2023/03/10 00:53:33;;;;;;;1.67;0.68;;;10.60;99.90;;;;;;5052936;28;20285;-43
2023/03/10 00:56:09;;;;;;;3.25;0.75;;;10.70;99.90;;;;;;5053054;28;20174;-43
2023/03/10 00:58:35;;;;;;;1.80;0.80;;;10.60;99.90;;;;;;5052732;28;20166;-44
2023/03/10 01:01:01;;;;;;;1.35;0.80;;;10.60;99.90;;;;;;5052488;28;20228;-43
2023/03/10 01:03:27;;;;;;;2.70;0.80;;;10.60;99.90;;;;;;5052751;28;20199;-43
2023/03/10 01:05:54;;;;;;;1.10;0.98;;;10.70;99.90;;;;;;5052618;28;20301;-44
2023/03/10 01:08:20;;;;;;;1.20;0.70;;;10.60;99.90;;;;;;5052207;28;20520;-43
2023/03/10 01:10:46;;;;;;;1.05;0.98;;;10.70;99.90;;;;;;5052477;28;20192;-44
2023/03/10 01:13:13;;;;;;;1.10;1.00;;;10.60;99.90;;;;;;5052330;28;20209;-44
2023/03/10 01:15:39;;;;;;;1.95;1.00;;;10.50;99.90;;;;;;5052278;28;20177;-44
2023/03/10 01:18:06;;;;;;;1.77;0.85;;;10.60;99.90;;;;;;5052708;28;20551;-43
2023/03/10 01:20:32;;;;;;;1.23;0.73;;;10.50;99.90;;;;;;5052241;28;20159;-44
2023/03/10 01:22:58;;;;;;;1.00;0.75;;;10.60;99.90;;;;;;5052238;28;20192;-43
2023/03/10 01:25:24;;;;;;;1.30;0.80;;;10.60;99.90;;;;;;5052629;28;20619;-43
2023/03/10 01:27:50;;;;;;;0.68;0.60;;;10.40;99.90;;;;;;5052087;28;20601;-44
2023/03/10 01:30:16;;;;;;;1.45;0.70;;;10.40;99.90;;;;;;5052048;28;20202;-49
2023/03/10 01:32:41;;;;;;;0.70;0.70;;;10.40;99.90;;;;;;5052012;28;20190;-51
2023/03/10 01:35:08;;;;;;;2.75;1.00;;;10.50;99.90;;;;;;5051980;28;20704;-50
2023/03/10 01:37:34;;;;;;;2.78;1.00;;;10.50;99.90;;;;;;5052215;28;20535;-50
2023/03/10 01:40:00;;;;;;;4.20;1.10;;;10.40;99.90;;;;;;5052044;28;20253;-50
2023/03/10 01:42:26;;;;;;;1.98;0.93;;;10.40;99.90;;;;;;5052184;28;20170;-51
2023/03/10 01:45:28;;;;;;;3.75;1.05;;;10.50;99.90;;;;;;5052203;28;20171;-51
2023/03/10 01:47:54;;;;;;;1.45;1.00;;;10.50;99.90;;;;;;5052103;28;20197;-50
2023/03/10 01:50:20;;;;;;;2.13;1.10;;;10.30;99.90;;;;;;5051651;28;20202;-51
2023/03/10 01:52:55;;;;;;;3.50;1.00;;;10.40;99.90;;;;;;5051819;28;20190;-51
2023/03/10 01:55:29;;;;;;;2.00;1.20;;;10.40;99.90;;;;;;5050338;28;20174;-51
2023/03/10 01:57:55;;;;;;;1.10;0.93;;;10.40;99.90;;;;;;5051934;28;20186;-51
2023/03/10 02:00:23;;;;;;;2.78;1.17;;;10.30;99.90;;;;;;5051268;28;20585;-51
2023/03/10 02:03:02;;;;;;;2.40;1.45;;;10.40;99.90;;;;;;5050066;28;20166;-51
2023/03/10 02:05:29;;;;;;;1.52;1.40;;;10.30;99.90;;;;;;5051185;28;20689;-50
2023/03/10 02:07:55;;;;;;;2.63;1.50;;;10.30;99.90;;;;;;5051877;28;20598;-51
2023/03/10 02:10:20;;;;;;;3.50;1.40;;;10.30;99.90;;;;;;5051296;28;20166;-49
2023/03/10 02:12:46;;;;;;;2.50;1.00;;;10.40;99.90;;;;;;5051482;28;20828;-47
2023/03/10 02:15:12;;;;;;;0.70;0.65;;;10.30;99.90;;;;;;5051326;28;20253;-51
2023/03/10 02:17:39;;;;;;;1.60;0.93;;;10.10;99.90;;;;;;5051011;28;20177;-51
2023/03/10 02:20:20;;;;;;;5.75;1.08;;;10.10;99.90;;;;;;5050942;28;20224;-51
2023/03/10 02:22:46;;;;;;;1.55;0.95;;;10.20;99.90;;;;;;5051267;28;20170;-50
2023/03/10 02:25:27;;;;;;;0.90;0.80;;;10.20;99.90;;;;;;5051175;28;20170;-50
2023/03/10 02:27:53;;;;;;;0.95;0.65;;;10.00;99.90;;;;;;5051589;28;20166;-50
2023/03/10 02:30:24;;;;;;;2.42;0.77;;;10.00;99.90;;;;;;5051089;28;20178;-51
2023/03/10 02:32:57;;;;;;;1.73;0.88;;;9.90;99.90;;;;;;5051011;28;20681;-51
2023/03/10 02:35:23;;;;;;;1.58;0.85;;;10.00;99.90;;;;;;5051360;28;20642;-43
2023/03/10 02:37:51;;;;;;;1.15;0.63;;;10.00;99.90;;;;;;5051165;28;20178;-43
2023/03/10 02:40:36;;;;;;;1.55;0.85;;;9.90;99.90;;;;;;5051115;28;20204;-43
2023/03/10 02:43:17;;;;;;;0.75;0.73;;;9.90;99.90;;;;;;5051319;28;20198;-44
2023/03/10 02:45:44;;;;;;;2.55;0.82;;;9.90;99.90;;;;;;5051063;28;20216;-43
2023/03/10 02:48:13;;;;;;;1.75;1.17;;;10.00;99.90;;;;;;5050671;28;20170;-43
2023/03/10 02:50:41;;;;;;;3.15;0.82;;;10.10;99.90;;;;;;5051028;28;20170;-43
2023/03/10 02:53:27;;;;;;;1.10;1.00;;;10.00;99.90;;;;;;5051114;28;20210;-51
2023/03/10 02:55:54;;;;;;;2.45;1.00;;;8.10;99.90;;;;;;5051356;28;20654;-51
2023/03/10 02:58:20;;;;;;;4.32;1.10;;;10.00;99.90;;;;;;5050859;28;20171;-51
2023/03/10 03:00:47;;;;;;;2.75;1.02;;;9.90;99.90;;;;;;5050640;28;20881;-50
2023/03/10 03:03:14;;;;;;;3.05;1.50;;;10.00;99.90;;;;;;5051096;28;20527;-51
2023/03/10 03:05:40;;;;;;;1.63;1.33;;;10.00;99.90;;;;;;5054764;28;20225;-51
2023/03/10 03:08:07;;;;;;;2.42;1.17;;;10.00;99.90;;;;;;5054596;28;20534;-50
2023/03/10 03:10:34;;;;;;;6.35;1.45;;;10.10;99.90;;;;;;5054745;28;20167;-50
2023/03/10 03:13:00;;;;;;;3.50;1.55;;;10.10;99.90;;;;;;5054816;28;20232;-50
2023/03/10 03:15:26;;;;;;;5.20;1.20;;;10.10;99.90;;;;;;5055074;28;20194;-50
2023/03/10 03:17:53;;;;;;;2.35;1.30;;;10.10;99.90;;;;;;5055187;28;20499;-50
2023/03/10 03:20:20;;;;;;;2.70;1.00;;;10.00;99.90;;;;;;5054728;28;20246;-51
2023/03/10 03:22:46;;;;;;;3.67;1.30;;;10.10;99.90;;;;;;5054757;28;20232;-51
2023/03/10 03:25:14;;;;;;;3.55;1.40;;;10.20;99.90;;;;;;5054395;28;20232;-50
2023/03/10 03:27:40;;;;;;;5.82;1.75;;;10.10;99.90;;;;;;5054223;28;20183;-44
2023/03/10 03:30:10;;;;;;;4.30;1.20;;;10.10;99.90;;;;;;5054135;28;20173;-46
2023/03/10 03:32:35;;;;;;;2.65;1.42;;;10.00;99.90;;;;;;5054259;28;20174;-50
2023/03/10 03:35:02;;;;;;;3.50;1.17;;;10.10;99.90;;;;;;5054534;28;20253;-50
2023/03/10 03:37:28;;;;;;;2.60;1.05;;;10.10;99.90;;;;;;5054184;28;20171;-50
2023/03/10 03:39:53;;;;;;;4.43;1.40;;;10.10;99.90;;;;;;5054618;28;20526;-48
2023/03/10 03:42:20;;;;;;;4.30;1.40;;;10.00;99.90;;;;;;5054266;28;20623;-45
2023/03/10 03:44:45;;;;;;;3.17;1.60;;;10.10;99.90;;;;;;5054093;28;20586;-49
2023/03/10 03:47:11;;;;;;;6.80;1.67;;;10.00;99.90;;;;;;5053907;28;20194;-50
2023/03/10 03:49:37;;;;;;;5.40;1.27;;;10.00;99.90;;;;;;5053812;28;20171;-46
2023/03/10 03:52:04;;;;;;;4.32;1.40;;;10.00;99.90;;;;;;5054023;28;20251;-46
2023/03/10 03:54:30;;;;;;;7.97;1.45;;;10.00;99.90;;;;;;5053827;28;20217;-46
2023/03/10 03:56:55;;;;;;;4.60;1.75;;;10.00;99.90;;;;;;5054184;28;20175;-50
2023/03/10 03:59:21;;;;;;;4.45;1.42;;;8.60;99.90;;;;;;5053321;28;20174;-44
2023/03/10 04:01:46;;;;;;;5.22;1.52;;;10.00;99.90;;;;;;5053707;28;20192;-45
2023/03/10 04:04:12;;;;;;;4.25;1.27;;;10.00;99.90;;;;;;5052531;28;20174;-45
2023/03/10 04:06:38;;;;;;;4.07;1.25;;;10.00;99.90;;;;;;5053569;28;20225;-44
2023/03/10 04:09:03;;;;;;;4.45;1.88;;;10.00;99.90;;;;;;5052945;28;20178;-46
2023/03/10 04:11:29;;;;;;;2.47;1.30;;;9.90;99.90;;;;;;5053670;28;20163;-44
2023/03/10 04:13:55;;;;;;;7.15;1.50;;;10.00;99.90;;;;;;5053844;28;20666;-44
2023/03/10 04:16:21;;;;;;;3.90;1.55;;;10.40;99.90;;;;;;5052448;28;20171;-45
2023/03/10 04:18:46;;;;;;;4.57;1.52;;;9.90;99.90;;;;;;5053466;28;20627;-44
2023/03/10 04:21:12;;;;;;;6.78;1.83;;;10.00;99.90;;;;;;5053451;28;20615;-49
2023/03/10 04:23:40;;;;;;;6.35;1.75;;;10.00;99.90;;;;;;5053387;28;20166;-43
2023/03/10 04:26:07;;;;;;;13.93;2.42;;;10.00;99.90;;;;;;5053309;28;20159;-44
2023/03/10 04:28:33;;;;;;;7.35;1.80;;;10.00;99.90;;;;;;5053312;28;20220;-44
2023/03/10 04:30:59;;;;;;;5.70;1.98;;;10.00;99.90;;;;;;5053274;28;20537;-46
2023/03/10 04:33:24;;;;;;;6.25;2.50;;;10.00;99.90;;;;;;5053424;28;20217;-43
2023/03/10 04:35:51;;;;;;;11.82;2.47;;;9.90;99.90;;;;;;5053331;28;20269;-44
2023/03/10 04:38:17;;;;;;;4.38;1.20;;;10.00;99.90;;;;;;5052714;28;20630;-43
2023/03/10 04:40:43;;;;;;;5.13;1.65;;;10.00;99.90;;;;;;5052679;28;20182;-43
2023/03/10 04:43:09;;;;;;;7.10;1.70;;;10.00;99.90;;;;;;5051731;28;20176;-43
2023/03/10 04:45:35;;;;;;;7.18;2.08;;;9.90;99.90;;;;;;5053008;28;20202;-43
2023/03/10 04:48:00;;;;;;;6.80;1.35;;;9.90;99.90;;;;;;5052845;28;20199;-44
2023/03/10 04:50:26;;;;;;;5.95;2.03;;;10.00;99.90;;;;;;5052635;28;20244;-43
2023/03/10 04:52:52;;;;;;;7.78;2.10;;;9.90;99.90;;;;;;5053073;28;20555;-43
2023/03/10 04:55:17;;;;;;;8.00;1.60;;;9.90;99.90;;;;;;5053124;28;20182;-43
2023/03/10 04:57:43;;;;;;;8.40;1.88;;;10.00;99.90;;;;;;5052661;28;20167;-43
2023/03/10 05:00:11;;;;;;;8.48;2.30;;;10.00;99.90;;;;;;5052626;28;20163;-43
2023/03/10 05:02:37;;;;;;;8.95;3.17;;;10.00;99.90;;;;;;5052688;28;20216;-43
2023/03/10 05:05:04;;;;;;;10.00;3.42;;;10.00;99.90;;;;;;5052444;28;20179;-43
2023/03/10 05:07:29;;;;;;;7.63;2.88;;;10.20;99.90;;;;;;5052314;28;20167;-43
2023/03/10 05:09:56;;;;;;;8.75;3.30;;;10.10;99.90;;;;;;5052887;28;20216;-43
2023/03/10 05:12:21;;;;;;;10.65;3.08;;;10.20;99.90;;;;;;5052750;28;20163;-43
2023/03/10 05:14:47;;;;;;;14.75;3.92;;;10.20;99.90;;;;;;5052307;28;20267;-44
2023/03/10 05:17:13;;;;;;;11.98;4.05;;;10.20;99.90;;;;;;5052385;28;20170;-43
2023/03/10 05:19:38;;;;;;;8.43;4.15;;;10.20;99.90;;;;;;5052457;28;20250;-43
2023/03/10 05:22:06;;;;;;;6.78;3.65;;;10.20;99.90;;;;;;5052337;28;20626;-44
2023/03/10 05:24:32;;;;;;;16.85;4.05;;;10.20;99.90;;;;;;5050888;28;20533;-44
2023/03/10 05:26:58;;;;;;;14.15;4.15;;;10.20;99.90;;;;;;5051868;28;20165;-45
2023/03/10 05:29:23;;;;;;;11.38;4.70;;;10.10;99.90;;;;;;5052495;28;20642;-44
2023/03/10 05:31:49;;;;;;;13.40;3.30;;;10.20;99.90;;;;;;5052119;28;20630;-43
2023/03/10 05:34:15;;;;;;;8.98;3.22;;;10.20;99.90;;;;;;5051915;28;20202;-43
2023/03/10 05:36:41;;;;;;;11.35;3.38;;;10.10;99.90;;;;;;5051834;28;20245;-44
2023/03/10 05:39:08;;;;;;;8.88;2.88;;;10.10;99.90;;;;;;5051872;28;20181;-43
2023/03/10 05:41:35;;;;;;;11.85;2.58;;;10.10;99.90;;;;;;5052154;28;20181;-43
2023/03/10 05:44:00;;;;;;;6.63;2.50;;;10.10;99.90;;;;;;5051709;28;20546;-43
2023/03/10 05:46:26;;;;;;;9.25;2.70;;;10.10;99.90;;;;;;5051524;28;20178;-43
2023/03/10 05:48:52;;;;;;;6.90;2.58;;;10.00;99.90;;;;;;5051817;28;20171;-43
2023/03/10 05:51:18;;;;;;;9.70;2.10;;;10.10;99.90;;;;;;5051602;28;20173;-44
2023/03/10 05:53:43;;;;;;;5.20;1.90;;;10.00;99.90;;;;;;5051547;28;20340;-46
2023/03/10 05:56:12;;;;;;;8.48;3.00;;;10.10;99.90;;;;;;5050545;28;20174;-43
2023/03/10 05:58:38;;;;;;;9.85;2.65;;;10.00;99.90;;;;;;5050996;28;20178;-43
2023/03/10 06:01:04;;;;;;;11.77;4.35;;;10.00;99.90;;;;;;5051598;28;20194;-43
2023/03/10 06:03:30;;;;;;;17.55;3.90;;;10.10;99.90;;;;;;5050983;28;20662;-43
2023/03/10 06:05:57;;;;;;;12.30;2.90;;;10.10;99.90;;;;;;5050936;28;20222;-43
2023/03/10 06:08:24;;;;;;;13.30;3.30;;;10.10;99.90;;;;;;5050345;28;20194;-43
2023/03/10 06:10:49;;;;;;;8.90;3.13;;;10.10;99.90;;;;;;5051350;28;20171;-43
2023/03/10 06:13:18;;;;;;;10.82;3.42;;;10.10;99.90;;;;;;5051354;28;20272;-44
2023/03/10 06:15:50;;;;;;;12.20;4.05;;;10.10;99.90;;;;;;5051532;28;20258;-43
2023/03/10 06:18:17;;;;;;;11.35;2.90;;;10.10;99.90;;;;;;5051225;28;20525;-44
2023/03/10 06:20:42;;;;;;;12.48;4.15;;;10.00;99.90;;;;;;5051112;28;20159;-43
2023/03/10 06:23:08;;;;;;;12.73;6.25;;;10.00;99.90;;;;;;5051195;28;20623;-43
2023/03/10 06:25:34;;;;;;;8.55;3.53;;;10.10;99.90;;;;;;5050887;28;20258;-44
2023/03/10 06:27:59;;;;;;;10.73;3.28;;;10.10;99.90;;;;;;5051144;28;20158;-43
2023/03/10 06:30:25;;;;;;;11.00;2.45;;;10.10;99.90;;;;;;5051080;28;20175;-43
2023/03/10 06:32:51;;;;;;;8.48;2.20;;;10.10;99.90;;;;;;5051008;28;20202;-44
2023/03/10 06:35:16;;;;;;;7.20;2.00;;;10.10;99.90;;;;;;5051366;28;20175;-43
2023/03/10 06:37:42;;;;;;;8.18;1.98;;;10.10;99.90;;;;;;5050448;28;20181;-43
2023/03/10 06:40:11;;;;;;;4.28;1.52;;;10.10;99.90;;;;;;5050838;28;20175;-43
2023/03/10 06:42:40;;;;;;;5.78;1.38;;;10.10;99.90;;;;;;5050875;28;20182;-45
2023/03/10 06:45:08;;;;;;;6.85;2.63;;;10.10;99.90;;;;;;5051159;28;20175;-43
2023/03/10 06:47:34;;;;;;;5.82;1.25;;;10.10;99.90;;;;;;5050830;28;20638;-43
2023/03/10 06:50:01;;;;;;;5.38;1.35;;;10.10;99.90;;;;;;5050735;28;20229;-43
2023/03/10 06:52:26;;;;;;;3.85;1.45;;;10.10;99.90;;;;;;5050569;28;20244;-43
2023/03/10 06:54:52;;;;;;;6.20;1.38;;;10.10;99.90;;;;;;5051037;28;20666;-43
2023/03/10 06:57:18;;;;;;;5.32;1.50;;;10.10;99.90;;;;;;5050848;28;20285;-46
2023/03/10 06:59:43;;;;;;;3.65;1.45;;;10.20;99.90;;;;;;5050722;28;20221;-43
2023/03/10 07:02:12;;;;;;;8.07;1.63;;;10.20;99.90;;;;;;5050705;28;20174;-45
2023/03/10 07:04:38;;;;;;;2.53;1.40;;;10.30;99.90;;;;;;5050750;28;20166;-44
2023/03/10 07:07:04;;;;;;;5.60;1.30;;;10.20;99.90;;;;;;5050600;28;20221;-43
2023/03/10 07:09:29;;;;;;;5.47;1.70;;;10.30;99.90;;;;;;5050574;28;20167;-44
2023/03/10 07:11:55;;;;;;;5.13;1.75;;;10.30;99.90;;;;;;5050438;28;20242;-43
2023/03/10 07:14:21;;;;;;;4.38;2.30;;;10.40;99.90;;;;;;5050723;28;20571;-43
2023/03/10 07:16:46;;;;;;;9.07;2.22;;;10.40;99.90;;;;;;5050431;28;20163;-43
2023/03/10 07:19:12;;;;;;;7.03;2.80;;;10.40;99.90;;;;;;5050547;28;20167;-44
2023/03/10 07:21:38;;;;;;;5.65;2.35;;;10.40;99.90;;;;;;5050732;28;20255;-45
2023/03/10 07:24:04;;;;;;;6.90;2.40;;;10.40;99.90;;;;;;5049012;28;20281;-48
2023/03/10 07:26:29;;;;;;;4.35;1.77;;;10.40;99.90;;;;;;5050918;28;20186;-44
2023/03/10 07:28:55;;;;;;;6.20;1.98;;;10.40;99.90;;;;;;5046817;28;20186;-49
2023/03/10 07:31:21;;;;;;;8.38;1.92;;;10.40;99.90;;;;;;5049297;28;20578;-46
2023/03/10 07:33:48;;;;;;;7.22;1.92;;;10.40;99.90;;;;;;5048612;28;20203;-48
2023/03/10 07:36:16;;;;;;;8.90;2.00;;;10.40;99.90;;;;;;5049180;28;20299;-49
2023/03/10 07:38:43;;;;;;;8.23;1.95;;;10.60;99.90;;;;;;5048767;28;20170;-48
2023/03/10 07:41:12;;;;;;;8.40;2.55;;;10.80;99.90;;;;;;5048580;28;20225;-43
2023/03/10 07:43:37;;;;;;;5.25;2.10;;;10.90;99.90;;;;;;5048908;28;20562;-43
2023/03/10 07:46:05;;;;;;;6.28;2.10;;;10.90;99.90;;;;;;5048830;28;20163;-43
2023/03/10 07:48:30;;;;;;;5.13;2.00;;;10.90;99.90;;;;;;5048814;28;20711;-43
2023/03/10 07:50:58;;;;;;;10.32;2.13;;;11.00;99.90;;;;;;5051694;28;20170;-42
2023/03/10 07:53:24;;;;;;;9.20;2.85;;;10.90;99.90;;;;;;5052828;28;20598;-43
2023/03/10 07:55:49;;;;;;;9.77;3.38;;;10.90;99.90;;;;;;5052825;28;20213;-44
2023/03/10 07:58:15;;;;;;;7.43;2.28;;;10.90;99.90;;;;;;5051508;28;20175;-42
2023/03/10 08:00:40;;;;;;;10.02;2.50;;;10.90;99.90;;;;;;5052271;28;20194;-45
2023/03/10 08:03:06;;;;;;;8.57;2.40;;;10.80;99.90;;;;;;5052345;28;20178;-44
2023/03/10 08:05:31;;;;;;;8.73;2.50;;;10.80;99.90;;;;;;5052191;28;20689;-44
2023/03/10 08:07:58;;;;;;;7.28;2.72;;;10.90;99.90;;;;;;5052142;28;20613;-43
2023/03/10 08:10:24;;;;;;;7.38;2.47;;;10.90;99.90;;;;;;5052529;28;20185;-41
2023/03/10 08:12:49;;;;;;;7.43;2.40;;;10.90;99.90;;;;;;5052587;28;20195;-43
2023/03/10 08:15:15;;;;;;;6.72;1.85;;;14.10;99.90;;;;;;5051902;28;20225;-47
2023/03/10 08:17:41;;;;;;;8.32;2.13;;;11.00;99.90;;;;;;5052191;28;20174;-46
2023/03/10 08:20:07;;;;;;;4.40;1.88;;;11.00;99.90;;;;;;5052170;28;20175;-44
2023/03/10 08:22:33;;;;;;;7.07;2.10;;;11.00;99.90;;;;;;5050622;28;20263;-40
2023/03/10 08:24:59;;;;;;;8.77;2.30;;;11.10;99.90;;;;;;5051712;28;20579;-40
2023/03/10 08:27:25;;;;;;;9.77;2.13;;;11.20;99.90;;;;;;5051979;28;20175;-44
2023/03/10 08:29:51;;;;;;;6.95;2.25;;;11.30;99.90;;;;;;5051790;28;20514;-42
2023/03/10 08:32:17;;;;;;;8.02;2.30;;;11.30;99.90;;;;;;5051580;28;20181;-42
2023/03/10 08:34:43;;;;;;;8.30;2.40;;;11.40;99.90;;;;;;5051477;28;20693;-44
2023/03/10 08:37:09;;;;;;;7.28;1.80;;;11.30;99.90;;;;;;5051578;28;20166;-42
2023/03/10 08:39:35;;;;;;;9.75;2.75;;;11.30;99.90;;;;;;5051170;28;20178;-41
2023/03/10 08:42:00;;;;;;;4.90;2.00;;;11.40;99.90;;;;;;5050223;28;20538;-44
2023/03/10 08:44:26;;;;;;;13.38;2.40;;;11.40;99.90;;;;;;5051019;28;20185;-43
2023/03/10 08:46:52;;;;;;;7.63;2.60;;;11.40;99.90;;;;;;5051796;28;20476;-42
2023/03/10 08:49:19;;;;;;;10.85;2.20;;;11.50;99.90;;;;;;5051311;28;20669;-42
2023/03/10 08:51:45;;;;;;;4.75;2.00;;;11.50;99.90;;;;;;5050759;28;20631;-46
2023/03/10 08:54:12;;;;;;;8.13;2.25;;;11.50;99.90;;;;;;5051088;28;20225;-45
2023/03/10 08:56:38;;;;;;;9.18;2.30;;;11.60;99.90;;;;;;5049778;28;20166;-44
2023/03/10 08:59:04;;;;;;;11.07;2.40;;;11.60;99.90;;;;;;5050879;28;20261;-43
2023/03/10 09:01:32;;;;;;;8.73;2.20;;;11.60;99.90;;;;;;5050526;28;20166;-44
2023/03/10 09:03:58;;;;;;;11.65;2.78;;;11.60;99.90;;;;;;5051026;28;20163;-44
2023/03/10 09:06:24;;;;;;;20.58;2.80;;;11.70;99.90;;;;;;5050059;28;20246;-43
2023/03/10 09:08:50;;;;;;;14.20;2.55;;;11.70;99.90;;;;;;5051156;28;20700;-43
2023/03/10 09:11:21;;;;;;;8.55;2.13;;;11.70;99.90;;;;;;5051146;28;20277;-44
2023/03/10 09:13:47;;;;;;;8.77;2.03;;;11.70;99.90;;;;;;5050837;28;20202;-43
2023/03/10 09:16:14;;;;;;;9.35;2.60;;;11.70;99.90;;;;;;5050527;28;20181;-43
2023/03/10 09:18:42;;;;;;;11.15;2.65;;;11.80;99.90;;;;;;5050894;28;20297;-43
2023/03/10 09:21:09;;;;;;;10.57;2.30;;;11.80;99.90;;;;;;5050936;28;20185;-43
2023/03/10 09:23:35;;;;;;;16.08;2.50;;;11.80;99.90;;;;;;5050474;28;20175;-43
2023/03/10 09:26:01;;;;;;;8.27;2.13;;;11.80;99.90;;;;;;5050928;28;20221;-43
2023/03/10 09:28:26;;;;;;;8.55;2.10;;;12.00;99.90;;;;;;5050601;28;20177;-43
2023/03/10 09:30:53;;;;;;;6.82;2.15;;;12.00;99.90;;;;;;5050346;28;20691;-43
2023/03/10 09:33:20;;;;;;;5.40;2.10;;;12.00;99.90;;;;;;5050884;28;20203;-43
2023/03/10 09:35:47;;;;;;;9.30;2.33;;;12.00;99.90;;;;;;5050509;28;20174;-43
2023/03/10 09:38:13;;;;;;;8.02;2.60;;;12.10;99.90;;;;;;5050398;28;20166;-43
2023/03/10 09:40:44;;;;;;;6.95;2.33;;;12.10;99.90;;;;;;5050146;28;20174;-43
2023/03/10 09:43:32;;;;;;;6.97;2.40;;;12.20;99.90;;;;;;5050421;28;20190;-43
2023/03/10 09:46:29;;;;;;;7.75;1.88;;;12.30;99.90;;;;;;5048977;28;20563;-43
2023/03/10 09:49:17;;;;;;;7.22;1.90;;;12.40;99.90;;;;;;5048928;28;20182;-43
2023/03/10 09:51:48;;;;;;;6.95;1.70;;;12.50;99.90;;;;;;5050089;28;20177;-44
2023/03/10 09:54:39;;;;;;;5.30;1.95;;;12.50;99.90;;;;;;5050187;28;20210;-43
2023/03/10 09:57:14;;;;;;;10.45;2.63;;;12.50;99.90;;;;;;5050172;28;20206;-44
2023/03/10 09:59:42;;;;;;;6.75;1.98;;;12.50;99.90;;;;;;5049851;28;20200;-43
2023/03/10 10:02:21;;;;;;;7.32;2.45;;;12.70;99.90;;;;;;5049930;28;20241;-43
2023/03/10 10:04:52;;;;;;;15.85;8.23;;;12.90;99.90;;;;;;5049917;28;20518;-43
2023/03/10 10:07:21;;;;;;;5.05;1.85;;;13.10;99.90;;;;;;5049869;28;20186;-43
2023/03/10 10:09:52;;;;;;;4.90;2.05;;;13.00;99.90;;;;;;5049939;28;20258;-43
2023/03/10 10:12:22;;;;;;;3.92;1.50;;;13.00;99.90;;;;;;5049779;28;20170;-43
2023/03/10 10:14:58;;;;;;;7.20;1.92;;;13.10;99.90;;;;;;5049212;28;20237;-43
2023/03/10 10:17:38;;;;;;;4.20;1.50;;;13.10;99.90;;;;;;5049701;28;20206;-45
2023/03/10 10:20:19;;;;;;;4.57;1.90;;;13.10;99.90;;;;;;5049751;28;20193;-43
2023/03/10 10:22:44;;;;;;;7.50;1.80;;;13.10;99.90;;;;;;5049395;28;20281;-43
2023/03/10 10:25:16;;;;;;;6.80;1.58;;;12.80;99.90;;;;;;5049699;28;20647;-43
2023/03/10 10:27:44;;;;;;;7.72;1.75;;;12.60;99.90;;;;;;5049669;28;20206;-43
2023/03/10 10:30:31;;;;;;;7.43;1.90;;;12.40;99.90;;;;;;5049957;28;20181;-43
2023/03/10 10:33:05;;;;;;;4.43;1.50;;;12.30;99.90;;;;;;5049294;28;20181;-43
2023/03/10 10:36:01;;;;;;;6.43;2.40;;;12.30;99.90;;;;;;5049742;28;20239;-43
2023/03/10 10:38:31;;;;;;;5.70;1.30;;;12.40;99.90;;;;;;5049472;28;20642;-43
2023/03/10 10:41:04;;;;;;;8.25;2.67;;;12.30;99.90;;;;;;5049576;28;20213;-43
2023/03/10 10:43:38;;;;;;;6.43;1.58;;;12.40;99.90;;;;;;5034841;28;20175;-43
2023/03/10 10:46:06;;;;;;;3.05;1.50;;;12.30;99.90;;;;;;5029308;28;20178;-43
2023/03/10 10:48:45;;;;;;;6.93;2.08;;;12.20;99.90;;;;;;5029561;28;20167;-43
2023/03/10 10:51:29;;;;;;;2.95;0.88;;;12.20;99.90;;;;;;5029383;28;20191;-43
2023/03/10 10:53:56;;;;;;;4.78;1.92;;;12.00;99.90;;;;;;5029935;28;20213;-43
2023/03/10 10:56:27;;;;;;;2.55;0.90;;;11.90;99.90;;;;;;5030182;28;20184;-43
2023/03/10 10:59:14;;;;;;;4.90;1.13;;;11.90;99.90;;;;;;5030246;28;20183;-43
2023/03/10 11:01:57;;;;;;;4.07;1.42;;;11.90;99.90;;;;;;5009906;28;20635;-43
2023/03/10 11:04:24;;;;;;;5.88;1.42;;;11.90;99.90;;;;;;5010556;28;20172;-43
2023/03/10 11:06:52;;;;;;;6.65;1.35;;;11.90;99.90;;;;;;5020971;28;20227;-43
2023/03/10 11:09:22;;;;;;;2.92;1.30;;;11.90;99.90;;;;;;5029647;28;20171;-43
2023/03/10 11:12:10;;;;;;;4.38;1.40;;;11.90;99.90;;;;;;5029918;28;20526;-44
2023/03/10 11:14:43;;;;;;;3.78;1.33;;;11.70;99.90;;;;;;5029410;28;20682;-43
2023/03/10 11:17:17;;;;;;;3.40;1.73;;;11.70;99.90;;;;;;5029432;28;20246;-43
2023/03/10 11:19:54;;;;;;;2.35;1.45;;;11.60;99.90;;;;;;5029685;28;20186;-44
2023/03/10 11:22:45;;;;;;;1.95;0.93;;;11.60;99.90;;;;;;5029781;28;20167;-44
2023/03/10 11:25:10;;;;;;;11.00;4.95;;;11.50;99.90;;;;;;5031085;28;20661;-43
2023/03/10 11:27:54;;;;;;;1.48;0.60;;;11.40;99.90;;;;;;5033492;28;20175;-43
2023/03/10 11:30:36;;;;;;;1.70;1.15;;;11.30;99.90;;;;;;5033527;28;20670;-42
2023/03/10 11:33:11;;;;;;;4.57;2.55;;;11.20;99.90;;;;;;5033035;28;20575;-43
2023/03/10 11:35:47;;;;;;;3.33;1.67;;;11.10;99.90;;;;;;5031475;28;20542;-45
2023/03/10 11:38:36;;;;;;;1.45;1.00;;;11.10;99.90;;;;;;5033065;28;20171;-43
2023/03/10 11:41:12;;;;;;;1.30;0.70;;;11.10;99.90;;;;;;5032734;28;20534;-44
2023/03/10 11:43:56;;;;;;;1.58;1.13;;;11.00;99.90;;;;;;5032610;28;20159;-44
2023/03/10 11:46:29;;;;;;;1.02;1.02;;;11.00;99.90;;;;;;5032707;28;20175;-45
2023/03/10 11:48:58;;;;;;;3.88;1.60;;;11.00;99.90;;;;;;5032587;28;20167;-47
2023/03/10 11:51:38;;;;;;;2.15;1.80;;;11.10;99.90;;;;;;5032582;28;20224;-46
2023/03/10 11:54:13;;;;;;;3.17;1.10;;;11.00;99.90;;;;;;5032266;28;20210;-45
2023/03/10 11:56:40;;;;;;;2.60;1.88;;;11.00;99.90;;;;;;5032199;28;20171;-49
2023/03/10 11:59:27;;;;;;;8.43;4.85;;;11.00;99.90;;;;;;5032211;28;20171;-48
2023/03/10 12:02:11;;;;;;;10.75;5.25;;;11.00;99.90;;;;;;5032965;28;20545;-46
2023/03/10 12:04:45;;;;;;;8.77;4.72;;;10.90;99.90;;;;;;5032398;28;20179;-46
2023/03/10 12:07:48;;;;;;;4.97;2.72;;;12.10;99.90;;;;;;5031963;28;20218;-44
2023/03/10 12:10:17;;;;;;;4.63;2.22;;;10.70;99.90;;;;;;5030007;28;20171;-44
2023/03/10 12:12:48;;;;;;;4.28;1.90;;;10.80;99.90;;;;;;5031871;28;20183;-46
2023/03/10 12:15:29;;;;;;;2.72;2.13;;;10.90;99.90;;;;;;5031283;28;20248;-45
2023/03/10 12:17:55;;;;;;;3.13;1.38;;;11.00;99.90;;;;;;5031781;28;20174;-43
2023/03/10 12:20:20;;;;;;;3.60;1.75;;;11.00;99.90;;;;;;5032497;28;20159;-46
2023/03/10 12:22:51;;;;;;;2.22;0.82;;;11.00;99.90;;;;;;5033573;28;20562;-46
2023/03/10 12:25:29;;;;;;;13.27;6.82;;;11.00;99.90;;;;;;5033475;28;20259;-51
2023/03/10 12:28:19;;;;;;;3.45;2.90;;;11.00;99.90;;;;;;5033940;28;20175;-48
2023/03/10 12:30:49;;;;;;;4.72;2.50;;;11.10;99.90;;;;;;5033297;28;20179;-51
2023/03/10 12:33:36;;;;;;;4.30;3.28;;;10.90;99.90;;;;;;5033126;28;20294;-43
2023/03/10 12:36:42;;;;;;;5.70;3.67;;;11.10;99.90;;;;;;5032167;28;20179;-46
2023/03/10 12:39:26;;;;;;;5.53;2.58;;;11.20;99.90;;;;;;5033223;28;20171;-48
2023/03/10 12:42:00;;;;;;;5.65;2.88;;;11.00;99.90;;;;;;5033852;28;20167;-45
2023/03/10 12:44:40;;;;;;;4.93;2.22;;;11.00;99.90;;;;;;5033070;28;20207;-46
2023/03/10 12:47:19;;;;;;;2.88;2.30;;;10.90;99.90;;;;;;5033223;28;20190;-47
2023/03/10 12:50:15;;;;;;;6.05;3.25;;;11.00;99.90;;;;;;5033289;28;20179;-42
2023/03/10 12:52:45;;;;;;;8.57;3.58;;;11.00;99.90;;;;;;5032975;28;20626;-49
2023/03/10 12:55:25;;;;;;;5.90;2.90;;;11.00;99.90;;;;;;5032885;28;20191;-49
2023/03/10 12:57:56;;;;;;;7.40;3.55;;;11.10;99.90;;;;;;5033183;28;20174;-50